sensor_id;sensor_type;location;lat;lon;timestamp;temperature;humidity
20839;DHT22;10580;51.092;6.828;2022-11-20T00:00:10;3.80;99.90
20839;DHT22;10580;51.092;6.828;2022-11-20T00:02:35;3.90;99.90
20839;DHT22;10580;51.092;6.828;2022-11-20T00:05:01;3.90;99.90
20839;DHT22;10580;51.092;6.828;2022-11-20T00:07:26;3.90;99.90
20839;DHT22;10580;51.092;6.828;2022-11-20T00:09:52;3.90;99.90
20839;DHT22;10580;51.092;6.828;2022-11-20T00:12:17;3.80;99.90
20839;DHT22;10580;51.092;6.828;2022-11-20T00:14:43;3.80;99.90
20839;DHT22;10580;51.092;6.828;2022-11-20T00:17:08;3.80;99.90
20839;DHT22;10580;51.092;6.828;2022-11-20T00:19:34;3.80;99.90
20839;DHT22;10580;51.092;6.828;2022-11-20T00:22:00;3.80;99.90
20839;DHT22;10580;51.092;6.828;2022-11-20T00:24:25;3.80;99.90
20839;DHT22;10580;51.092;6.828;2022-11-20T00:26:51;3.90;99.90
20839;DHT22;10580;51.092;6.828;2022-11-20T00:29:16;3.90;99.90
20839;DHT22;10580;51.092;6.828;2022-11-20T00:31:42;3.80;99.90
20839;DHT22;10580;51.092;6.828;2022-11-20T00:34:09;3.90;99.90
20839;DHT22;10580;51.092;6.828;2022-11-20T00:36:35;3.90;99.90
20839;DHT22;10580;51.092;6.828;2022-11-20T00:39:00;3.90;99.90
20839;DHT22;10580;51.092;6.828;2022-11-20T00:41:27;3.90;99.90
20839;DHT22;10580;51.092;6.828;2022-11-20T00:43:54;3.80;99.90
20839;DHT22;10580;51.092;6.828;2022-11-20T00:46:23;3.90;99.90
20839;DHT22;10580;51.092;6.828;2022-11-20T00:48:49;3.90;99.90
20839;DHT22;10580;51.092;6.828;2022-11-20T00:51:18;3.90;99.90
20839;DHT22;10580;51.092;6.828;2022-11-20T00:53:43;4.00;99.90
20839;DHT22;10580;51.092;6.828;2022-11-20T00:56:11;4.00;99.90
20839;DHT22;10580;51.092;6.828;2022-11-20T00:58:39;4.00;99.90
20839;DHT22;10580;51.092;6.828;2022-11-20T01:01:08;4.00;99.90
20839;DHT22;10580;51.092;6.828;2022-11-20T01:03:40;4.00;99.90
20839;DHT22;10580;51.092;6.828;2022-11-20T01:06:09;4.00;99.90
20839;DHT22;10580;51.092;6.828;2022-11-20T01:08:36;4.10;99.90
20839;DHT22;10580;51.092;6.828;2022-11-20T01:11:07;4.00;99.90
20839;DHT22;10580;51.092;6.828;2022-11-20T01:13:34;3.90;99.90
20839;DHT22;10580;51.092;6.828;2022-11-20T01:16:05;3.90;99.90
20839;DHT22;10580;51.092;6.828;2022-11-20T01:18:31;4.00;99.90
20839;DHT22;10580;51.092;6.828;2022-11-20T01:21:06;4.00;99.90
20839;DHT22;10580;51.092;6.828;2022-11-20T01:23:36;4.00;99.90
20839;DHT22;10580;51.092;6.828;2022-11-20T01:26:04;3.90;99.90
20839;DHT22;10580;51.092;6.828;2022-11-20T01:28:30;3.90;99.90
20839;DHT22;10580;51.092;6.828;2022-11-20T01:30:56;4.00;99.90
20839;DHT22;10580;51.092;6.828;2022-11-20T01:33:22;4.00;99.90
20839;DHT22;10580;51.092;6.828;2022-11-20T01:35:48;4.00;99.90
20839;DHT22;10580;51.092;6.828;2022-11-20T01:38:15;4.10;99.90
20839;DHT22;10580;51.092;6.828;2022-11-20T01:40:40;4.10;99.90
20839;DHT22;10580;51.092;6.828;2022-11-20T01:43:15;4.20;99.90
20839;DHT22;10580;51.092;6.828;2022-11-20T01:48:36;4.20;99.90
20839;DHT22;10580;51.092;6.828;2022-11-20T01:51:04;4.20;99.90
20839;DHT22;10580;51.092;6.828;2022-11-20T01:53:34;4.20;99.90
20839;DHT22;10580;51.092;6.828;2022-11-20T01:56:03;4.10;99.90
20839;DHT22;10580;51.092;6.828;2022-11-20T01:58:33;4.20;99.90
20839;DHT22;10580;51.092;6.828;2022-11-20T02:01:01;4.20;99.90
20839;DHT22;10580;51.092;6.828;2022-11-20T02:03:27;4.20;99.90
20839;DHT22;10580;51.092;6.828;2022-11-20T02:06:11;4.20;99.90
20839;DHT22;10580;51.092;6.828;2022-11-20T02:08:38;4.20;99.90
20839;DHT22;10580;51.092;6.828;2022-11-20T02:11:04;4.10;99.90
20839;DHT22;10580;51.092;6.828;2022-11-20T02:13:30;4.10;99.90
20839;DHT22;10580;51.092;6.828;2022-11-20T02:16:17;4.00;99.90
20839;DHT22;10580;51.092;6.828;2022-11-20T02:18:45;3.90;99.90
20839;DHT22;10580;51.092;6.828;2022-11-20T02:26:38;3.90;99.90
20839;DHT22;10580;51.092;6.828;2022-11-20T02:29:04;3.90;99.90
20839;DHT22;10580;51.092;6.828;2022-11-20T02:31:40;3.80;99.90
20839;DHT22;10580;51.092;6.828;2022-11-20T02:34:06;3.80;99.90
20839;DHT22;10580;51.092;6.828;2022-11-20T02:36:32;3.70;99.90
20839;DHT22;10580;51.092;6.828;2022-11-20T02:38:59;3.80;99.90
20839;DHT22;10580;51.092;6.828;2022-11-20T02:41:33;3.70;99.90
20839;DHT22;10580;51.092;6.828;2022-11-20T02:43:59;3.70;99.90
20839;DHT22;10580;51.092;6.828;2022-11-20T02:46:24;3.70;99.90
20839;DHT22;10580;51.092;6.828;2022-11-20T02:48:50;3.70;99.90
20839;DHT22;10580;51.092;6.828;2022-11-20T02:51:15;3.70;99.90
20839;DHT22;10580;51.092;6.828;2022-11-20T02:53:41;3.80;99.90
20839;DHT22;10580;51.092;6.828;2022-11-20T02:56:07;3.70;99.90
20839;DHT22;10580;51.092;6.828;2022-11-20T02:58:32;3.70;99.90
20839;DHT22;10580;51.092;6.828;2022-11-20T03:00:58;3.80;99.90
20839;DHT22;10580;51.092;6.828;2022-11-20T03:03:23;3.80;99.90
20839;DHT22;10580;51.092;6.828;2022-11-20T03:05:49;3.80;99.90
20839;DHT22;10580;51.092;6.828;2022-11-20T03:08:14;3.80;99.90
20839;DHT22;10580;51.092;6.828;2022-11-20T03:10:40;3.80;99.90
20839;DHT22;10580;51.092;6.828;2022-11-20T03:13:06;3.80;99.90
20839;DHT22;10580;51.092;6.828;2022-11-20T03:15:31;3.80;99.90
20839;DHT22;10580;51.092;6.828;2022-11-20T03:17:57;3.80;99.90
20839;DHT22;10580;51.092;6.828;2022-11-20T03:20:23;3.90;99.90
20839;DHT22;10580;51.092;6.828;2022-11-20T03:22:48;3.90;99.90
20839;DHT22;10580;51.092;6.828;2022-11-20T03:25:14;3.80;99.90
20839;DHT22;10580;51.092;6.828;2022-11-20T03:27:40;3.80;99.90
20839;DHT22;10580;51.092;6.828;2022-11-20T03:30:06;3.80;99.90
20839;DHT22;10580;51.092;6.828;2022-11-20T03:32:31;3.80;99.90
20839;DHT22;10580;51.092;6.828;2022-11-20T03:34:57;3.80;99.90
20839;DHT22;10580;51.092;6.828;2022-11-20T03:37:22;3.80;99.90
20839;DHT22;10580;51.092;6.828;2022-11-20T03:39:48;3.80;99.90
20839;DHT22;10580;51.092;6.828;2022-11-20T03:42:13;3.80;99.90
20839;DHT22;10580;51.092;6.828;2022-11-20T03:44:57;3.80;99.90
20839;DHT22;10580;51.092;6.828;2022-11-20T03:47:23;3.80;99.90
20839;DHT22;10580;51.092;6.828;2022-11-20T03:49:49;3.80;99.90
20839;DHT22;10580;51.092;6.828;2022-11-20T03:52:14;3.80;99.90
20839;DHT22;10580;51.092;6.828;2022-11-20T03:54:40;3.80;99.90
20839;DHT22;10580;51.092;6.828;2022-11-20T03:57:05;3.80;99.90
20839;DHT22;10580;51.092;6.828;2022-11-20T03:59:31;3.70;99.90
20839;DHT22;10580;51.092;6.828;2022-11-20T04:01:56;3.70;99.90
20839;DHT22;10580;51.092;6.828;2022-11-20T04:04:22;3.60;99.90
20839;DHT22;10580;51.092;6.828;2022-11-20T04:06:47;3.60;99.90
20839;DHT22;10580;51.092;6.828;2022-11-20T04:09:13;3.60;99.90
20839;DHT22;10580;51.092;6.828;2022-11-20T04:11:40;3.60;99.90
20839;DHT22;10580;51.092;6.828;2022-11-20T04:14:11;3.60;99.90
20839;DHT22;10580;51.092;6.828;2022-11-20T04:16:37;3.60;99.90
20839;DHT22;10580;51.092;6.828;2022-11-20T04:19:06;3.70;99.90
20839;DHT22;10580;51.092;6.828;2022-11-20T04:21:32;3.60;99.90
20839;DHT22;10580;51.092;6.828;2022-11-20T04:23:58;3.60;99.90
20839;DHT22;10580;51.092;6.828;2022-11-20T04:26:26;3.60;99.90
20839;DHT22;10580;51.092;6.828;2022-11-20T04:28:52;3.60;99.90
20839;DHT22;10580;51.092;6.828;2022-11-20T04:31:24;3.60;99.90
20839;DHT22;10580;51.092;6.828;2022-11-20T04:33:50;3.60;99.90
20839;DHT22;10580;51.092;6.828;2022-11-20T04:36:24;3.60;99.90
20839;DHT22;10580;51.092;6.828;2022-11-20T04:38:55;3.70;99.90
20839;DHT22;10580;51.092;6.828;2022-11-20T04:41:22;3.70;99.90
20839;DHT22;10580;51.092;6.828;2022-11-20T04:43:49;3.70;99.90
20839;DHT22;10580;51.092;6.828;2022-11-20T04:46:16;3.70;99.90
20839;DHT22;10580;51.092;6.828;2022-11-20T04:48:42;3.70;99.90
20839;DHT22;10580;51.092;6.828;2022-11-20T04:51:07;3.80;99.90
20839;DHT22;10580;51.092;6.828;2022-11-20T04:53:33;3.80;99.90
20839;DHT22;10580;51.092;6.828;2022-11-20T04:56:02;3.80;99.90
20839;DHT22;10580;51.092;6.828;2022-11-20T04:58:29;3.90;99.90
20839;DHT22;10580;51.092;6.828;2022-11-20T05:01:04;4.00;99.90
20839;DHT22;10580;51.092;6.828;2022-11-20T05:03:30;4.00;99.90
20839;DHT22;10580;51.092;6.828;2022-11-20T05:05:56;4.00;99.90
20839;DHT22;10580;51.092;6.828;2022-11-20T05:08:24;4.00;99.90
20839;DHT22;10580;51.092;6.828;2022-11-20T05:10:50;4.00;99.90
20839;DHT22;10580;51.092;6.828;2022-11-20T05:13:15;4.00;99.90
20839;DHT22;10580;51.092;6.828;2022-11-20T05:15:41;4.10;99.90
20839;DHT22;10580;51.092;6.828;2022-11-20T05:18:07;4.10;99.90
20839;DHT22;10580;51.092;6.828;2022-11-20T05:20:32;4.10;99.90
20839;DHT22;10580;51.092;6.828;2022-11-20T05:22:58;4.10;99.90
20839;DHT22;10580;51.092;6.828;2022-11-20T05:25:24;4.10;99.90
20839;DHT22;10580;51.092;6.828;2022-11-20T05:27:49;4.10;99.90
20839;DHT22;10580;51.092;6.828;2022-11-20T05:30:15;4.10;99.90
20839;DHT22;10580;51.092;6.828;2022-11-20T05:32:40;4.00;99.90
20839;DHT22;10580;51.092;6.828;2022-11-20T05:35:06;4.00;99.90
20839;DHT22;10580;51.092;6.828;2022-11-20T05:37:32;3.90;99.90
20839;DHT22;10580;51.092;6.828;2022-11-20T05:39:58;3.80;99.90
20839;DHT22;10580;51.092;6.828;2022-11-20T05:42:23;3.80;99.90
20839;DHT22;10580;51.092;6.828;2022-11-20T05:45:03;3.80;99.90
20839;DHT22;10580;51.092;6.828;2022-11-20T05:47:32;3.80;99.90
20839;DHT22;10580;51.092;6.828;2022-11-20T05:49:58;3.70;99.90
20839;DHT22;10580;51.092;6.828;2022-11-20T05:52:23;3.70;99.90
20839;DHT22;10580;51.092;6.828;2022-11-20T05:54:49;3.70;99.90
20839;DHT22;10580;51.092;6.828;2022-11-20T05:57:15;3.70;99.90
20839;DHT22;10580;51.092;6.828;2022-11-20T05:59:41;3.60;99.90
20839;DHT22;10580;51.092;6.828;2022-11-20T06:02:07;3.60;99.90
20839;DHT22;10580;51.092;6.828;2022-11-20T06:04:32;3.50;99.90
20839;DHT22;10580;51.092;6.828;2022-11-20T06:06:58;3.50;99.90
20839;DHT22;10580;51.092;6.828;2022-11-20T06:09:23;3.50;99.90
20839;DHT22;10580;51.092;6.828;2022-11-20T06:11:49;3.40;99.90
20839;DHT22;10580;51.092;6.828;2022-11-20T06:14:14;3.30;99.90
20839;DHT22;10580;51.092;6.828;2022-11-20T06:16:40;3.20;99.90
20839;DHT22;10580;51.092;6.828;2022-11-20T06:19:05;3.10;99.90
20839;DHT22;10580;51.092;6.828;2022-11-20T06:21:31;3.00;99.90
20839;DHT22;10580;51.092;6.828;2022-11-20T06:23:57;3.00;99.90
20839;DHT22;10580;51.092;6.828;2022-11-20T06:26:25;2.90;99.90
20839;DHT22;10580;51.092;6.828;2022-11-20T06:28:51;2.90;99.90
20839;DHT22;10580;51.092;6.828;2022-11-20T06:31:19;2.80;99.90
20839;DHT22;10580;51.092;6.828;2022-11-20T06:33:46;2.70;99.90
20839;DHT22;10580;51.092;6.828;2022-11-20T06:36:13;2.70;99.90
20839;DHT22;10580;51.092;6.828;2022-11-20T06:38:39;2.70;99.90
20839;DHT22;10580;51.092;6.828;2022-11-20T06:41:10;2.60;99.90
20839;DHT22;10580;51.092;6.828;2022-11-20T06:43:36;2.60;99.90
20839;DHT22;10580;51.092;6.828;2022-11-20T06:46:02;2.60;99.90
20839;DHT22;10580;51.092;6.828;2022-11-20T06:48:28;2.50;99.90
20839;DHT22;10580;51.092;6.828;2022-11-20T06:50:55;2.50;99.90
20839;DHT22;10580;51.092;6.828;2022-11-20T06:53:21;2.40;99.90
20839;DHT22;10580;51.092;6.828;2022-11-20T06:55:48;2.40;99.90
20839;DHT22;10580;51.092;6.828;2022-11-20T06:58:15;2.40;99.90
20839;DHT22;10580;51.092;6.828;2022-11-20T07:00:41;2.40;99.90
20839;DHT22;10580;51.092;6.828;2022-11-20T07:03:08;2.40;99.90
20839;DHT22;10580;51.092;6.828;2022-11-20T07:05:34;2.40;99.90
20839;DHT22;10580;51.092;6.828;2022-11-20T07:08:00;2.40;99.90
20839;DHT22;10580;51.092;6.828;2022-11-20T07:10:26;2.40;99.90
20839;DHT22;10580;51.092;6.828;2022-11-20T07:12:52;2.40;99.90
20839;DHT22;10580;51.092;6.828;2022-11-20T07:15:19;2.40;99.90
20839;DHT22;10580;51.092;6.828;2022-11-20T07:17:45;2.50;99.90
20839;DHT22;10580;51.092;6.828;2022-11-20T07:20:11;2.50;99.90
20839;DHT22;10580;51.092;6.828;2022-11-20T07:22:37;2.50;99.90
20839;DHT22;10580;51.092;6.828;2022-11-20T07:25:03;2.60;99.90
20839;DHT22;10580;51.092;6.828;2022-11-20T07:27:29;2.60;99.90
20839;DHT22;10580;51.092;6.828;2022-11-20T07:29:55;2.60;99.90
20839;DHT22;10580;51.092;6.828;2022-11-20T07:32:22;2.70;99.90
20839;DHT22;10580;51.092;6.828;2022-11-20T07:34:47;2.70;99.90
20839;DHT22;10580;51.092;6.828;2022-11-20T07:37:13;2.70;99.90
20839;DHT22;10580;51.092;6.828;2022-11-20T07:39:39;2.80;99.90
20839;DHT22;10580;51.092;6.828;2022-11-20T07:42:08;2.90;99.90
20839;DHT22;10580;51.092;6.828;2022-11-20T07:44:35;3.00;99.90
20839;DHT22;10580;51.092;6.828;2022-11-20T07:47:01;3.00;99.90
20839;DHT22;10580;51.092;6.828;2022-11-20T07:49:27;3.10;99.90
20839;DHT22;10580;51.092;6.828;2022-11-20T07:51:53;3.20;99.90
20839;DHT22;10580;51.092;6.828;2022-11-20T07:54:22;3.20;99.90
20839;DHT22;10580;51.092;6.828;2022-11-20T07:56:49;3.30;99.90
20839;DHT22;10580;51.092;6.828;2022-11-20T07:59:14;3.40;99.90
20839;DHT22;10580;51.092;6.828;2022-11-20T08:01:41;3.40;99.90
20839;DHT22;10580;51.092;6.828;2022-11-20T08:04:07;3.50;99.90
20839;DHT22;10580;51.092;6.828;2022-11-20T08:06:33;3.60;99.90
20839;DHT22;10580;51.092;6.828;2022-11-20T08:08:59;3.70;99.90
20839;DHT22;10580;51.092;6.828;2022-11-20T08:11:24;3.70;99.90
20839;DHT22;10580;51.092;6.828;2022-11-20T08:14:08;3.70;99.90
20839;DHT22;10580;51.092;6.828;2022-11-20T08:16:37;3.70;99.90
20839;DHT22;10580;51.092;6.828;2022-11-20T08:19:03;3.70;99.90
20839;DHT22;10580;51.092;6.828;2022-11-20T08:21:29;3.80;99.90
20839;DHT22;10580;51.092;6.828;2022-11-20T08:23:55;3.90;99.90
20839;DHT22;10580;51.092;6.828;2022-11-20T08:26:21;3.90;99.90
20839;DHT22;10580;51.092;6.828;2022-11-20T08:28:46;4.00;99.90
20839;DHT22;10580;51.092;6.828;2022-11-20T08:31:14;4.00;99.90
20839;DHT22;10580;51.092;6.828;2022-11-20T08:33:40;3.90;99.90
20839;DHT22;10580;51.092;6.828;2022-11-20T08:36:06;4.00;99.90
20839;DHT22;10580;51.092;6.828;2022-11-20T08:38:32;4.00;99.90
20839;DHT22;10580;51.092;6.828;2022-11-20T08:40:59;4.10;99.90
20839;DHT22;10580;51.092;6.828;2022-11-20T08:43:43;4.20;99.90
20839;DHT22;10580;51.092;6.828;2022-11-20T08:46:09;4.30;99.90
20839;DHT22;10580;51.092;6.828;2022-11-20T08:48:34;4.30;99.90
20839;DHT22;10580;51.092;6.828;2022-11-20T08:51:00;4.40;99.90
20839;DHT22;10580;51.092;6.828;2022-11-20T08:53:26;4.40;99.90
20839;DHT22;10580;51.092;6.828;2022-11-20T08:55:52;4.50;99.90
20839;DHT22;10580;51.092;6.828;2022-11-20T08:58:17;4.50;99.90
20839;DHT22;10580;51.092;6.828;2022-11-20T09:00:43;4.50;99.90
20839;DHT22;10580;51.092;6.828;2022-11-20T09:03:08;4.50;99.90
20839;DHT22;10580;51.092;6.828;2022-11-20T09:05:34;4.60;99.90
20839;DHT22;10580;51.092;6.828;2022-11-20T09:08:00;4.40;99.90
20839;DHT22;10580;51.092;6.828;2022-11-20T09:10:26;4.50;99.90
20839;DHT22;10580;51.092;6.828;2022-11-20T09:12:52;4.50;99.90
20839;DHT22;10580;51.092;6.828;2022-11-20T09:15:19;4.60;99.90
20839;DHT22;10580;51.092;6.828;2022-11-20T09:17:55;4.70;99.90
20839;DHT22;10580;51.092;6.828;2022-11-20T09:20:21;4.70;99.90
20839;DHT22;10580;51.092;6.828;2022-11-20T09:22:47;4.80;99.90
20839;DHT22;10580;51.092;6.828;2022-11-20T09:25:13;4.90;99.90
20839;DHT22;10580;51.092;6.828;2022-11-20T09:27:39;5.00;99.90
20839;DHT22;10580;51.092;6.828;2022-11-20T09:30:07;5.00;99.90
20839;DHT22;10580;51.092;6.828;2022-11-20T09:32:32;5.10;99.90
20839;DHT22;10580;51.092;6.828;2022-11-20T09:34:58;5.20;99.90
20839;DHT22;10580;51.092;6.828;2022-11-20T09:37:24;5.20;99.90
20839;DHT22;10580;51.092;6.828;2022-11-20T09:39:49;5.20;99.90
20839;DHT22;10580;51.092;6.828;2022-11-20T09:45:20;5.10;99.90
20839;DHT22;10580;51.092;6.828;2022-11-20T09:50:51;5.10;99.90
20839;DHT22;10580;51.092;6.828;2022-11-20T09:56:11;5.20;99.90
20839;DHT22;10580;51.092;6.828;2022-11-20T09:58:49;5.20;99.90
20839;DHT22;10580;51.092;6.828;2022-11-20T10:01:18;5.20;99.90
20839;DHT22;10580;51.092;6.828;2022-11-20T10:04:02;5.20;99.90
20839;DHT22;10580;51.092;6.828;2022-11-20T10:06:31;5.20;99.90
20839;DHT22;10580;51.092;6.828;2022-11-20T10:14:45;5.20;99.90
20839;DHT22;10580;51.092;6.828;2022-11-20T10:17:38;5.20;99.90
20839;DHT22;10580;51.092;6.828;2022-11-20T10:20:27;5.20;99.90
20839;DHT22;10580;51.092;6.828;2022-11-20T10:23:00;5.10;99.90
20839;DHT22;10580;51.092;6.828;2022-11-20T10:25:56;5.20;99.90
20839;DHT22;10580;51.092;6.828;2022-11-20T10:28:28;5.30;99.90
20839;DHT22;10580;51.092;6.828;2022-11-20T10:31:10;5.30;99.90
20839;DHT22;10580;51.092;6.828;2022-11-20T10:33:41;5.30;99.90
20839;DHT22;10580;51.092;6.828;2022-11-20T10:36:21;5.50;99.90
20839;DHT22;10580;51.092;6.828;2022-11-20T10:41:23;5.60;99.90
20839;DHT22;10580;51.092;6.828;2022-11-20T10:44:20;5.70;99.90
20839;DHT22;10580;51.092;6.828;2022-11-20T10:47:12;5.80;99.90
20839;DHT22;10580;51.092;6.828;2022-11-20T10:49:39;6.00;99.90
20839;DHT22;10580;51.092;6.828;2022-11-20T10:54:55;6.20;99.90
20839;DHT22;10580;51.092;6.828;2022-11-20T11:00:16;6.60;99.90
20839;DHT22;10580;51.092;6.828;2022-11-20T11:02:50;6.60;99.90
20839;DHT22;10580;51.092;6.828;2022-11-20T11:05:39;6.60;99.90
20839;DHT22;10580;51.092;6.828;2022-11-20T11:08:12;6.50;99.90
20839;DHT22;10580;51.092;6.828;2022-11-20T11:10:57;6.30;99.90
20839;DHT22;10580;51.092;6.828;2022-11-20T11:13:26;6.20;99.90
20839;DHT22;10580;51.092;6.828;2022-11-20T11:15:52;5.90;99.90
20839;DHT22;10580;51.092;6.828;2022-11-20T11:18:31;5.90;99.90
20839;DHT22;10580;51.092;6.828;2022-11-20T11:20:59;5.80;99.90
20839;DHT22;10580;51.092;6.828;2022-11-20T11:23:34;5.60;99.90
20839;DHT22;10580;51.092;6.828;2022-11-20T11:26:02;5.60;99.90
20839;DHT22;10580;51.092;6.828;2022-11-20T11:28:29;5.60;99.90
20839;DHT22;10580;51.092;6.828;2022-11-20T11:30:55;5.70;99.90
20839;DHT22;10580;51.092;6.828;2022-11-20T11:33:29;5.70;99.90
20839;DHT22;10580;51.092;6.828;2022-11-20T11:36:00;5.60;99.90
20839;DHT22;10580;51.092;6.828;2022-11-20T11:38:43;5.60;99.90
20839;DHT22;10580;51.092;6.828;2022-11-20T11:41:15;5.60;99.90
20839;DHT22;10580;51.092;6.828;2022-11-20T11:43:52;5.70;99.90
20839;DHT22;10580;51.092;6.828;2022-11-20T11:46:37;5.70;99.90
20839;DHT22;10580;51.092;6.828;2022-11-20T11:54:23;5.90;99.90
20839;DHT22;10580;51.092;6.828;2022-11-20T11:56:51;5.90;99.90
20839;DHT22;10580;51.092;6.828;2022-11-20T11:59:26;5.90;99.90
20839;DHT22;10580;51.092;6.828;2022-11-20T12:01:57;6.00;99.90
20839;DHT22;10580;51.092;6.828;2022-11-20T12:04:37;5.90;99.90
20839;DHT22;10580;51.092;6.828;2022-11-20T12:07:12;5.90;99.90
20839;DHT22;10580;51.092;6.828;2022-11-20T12:09:46;5.90;99.90
20839;DHT22;10580;51.092;6.828;2022-11-20T12:12:18;5.80;99.90
20839;DHT22;10580;51.092;6.828;2022-11-20T12:14:47;5.70;99.90
20839;DHT22;10580;51.092;6.828;2022-11-20T12:17:15;5.70;99.90
20839;DHT22;10580;51.092;6.828;2022-11-20T12:19:41;5.70;99.90
20839;DHT22;10580;51.092;6.828;2022-11-20T12:24:57;5.70;99.90
20839;DHT22;10580;51.092;6.828;2022-11-20T12:32:41;5.50;99.90
20839;DHT22;10580;51.092;6.828;2022-11-20T12:43:21;5.50;99.90
20839;DHT22;10580;51.092;6.828;2022-11-20T12:46:17;5.50;99.90
20839;DHT22;10580;51.092;6.828;2022-11-20T12:48:50;5.50;99.90
20839;DHT22;10580;51.092;6.828;2022-11-20T12:57:22;5.60;99.90
20839;DHT22;10580;51.092;6.828;2022-11-20T13:00:14;5.70;99.90
20839;DHT22;10580;51.092;6.828;2022-11-20T13:08:26;5.80;99.90
20839;DHT22;10580;51.092;6.828;2022-11-20T13:16:46;5.80;99.90
20839;DHT22;10580;51.092;6.828;2022-11-20T13:19:15;5.80;99.90
20839;DHT22;10580;51.092;6.828;2022-11-20T13:21:49;5.70;99.90
20839;DHT22;10580;51.092;6.828;2022-11-20T13:24:26;5.70;99.90
20839;DHT22;10580;51.092;6.828;2022-11-20T13:29:27;5.80;99.90
20839;DHT22;10580;51.092;6.828;2022-11-20T13:34:30;5.80;99.90
20839;DHT22;10580;51.092;6.828;2022-11-20T13:36:57;5.80;99.90
20839;DHT22;10580;51.092;6.828;2022-11-20T13:39:28;5.80;99.90
20839;DHT22;10580;51.092;6.828;2022-11-20T13:42:21;5.80;99.90
20839;DHT22;10580;51.092;6.828;2022-11-20T13:44:48;5.90;99.90
20839;DHT22;10580;51.092;6.828;2022-11-20T13:47:23;5.90;99.90
20839;DHT22;10580;51.092;6.828;2022-11-20T13:49:51;6.00;99.90
20839;DHT22;10580;51.092;6.828;2022-11-20T14:00:28;6.10;99.90
20839;DHT22;10580;51.092;6.828;2022-11-20T14:03:10;6.10;99.90
20839;DHT22;10580;51.092;6.828;2022-11-20T14:05:49;6.10;99.90
20839;DHT22;10580;51.092;6.828;2022-11-20T14:08:28;6.00;99.90
20839;DHT22;10580;51.092;6.828;2022-11-20T14:11:04;6.10;99.90
20839;DHT22;10580;51.092;6.828;2022-11-20T14:13:30;6.00;99.90
20839;DHT22;10580;51.092;6.828;2022-11-20T14:15:59;5.90;99.90
20839;DHT22;10580;51.092;6.828;2022-11-20T14:18:26;5.90;99.90
20839;DHT22;10580;51.092;6.828;2022-11-20T14:20:52;5.90;99.90
20839;DHT22;10580;51.092;6.828;2022-11-20T14:23:28;5.90;99.90
20839;DHT22;10580;51.092;6.828;2022-11-20T14:25:54;5.90;99.90
20839;DHT22;10580;51.092;6.828;2022-11-20T14:28:26;5.80;99.90
20839;DHT22;10580;51.092;6.828;2022-11-20T14:30:52;5.90;99.90
20839;DHT22;10580;51.092;6.828;2022-11-20T14:33:18;5.90;99.90
20839;DHT22;10580;51.092;6.828;2022-11-20T14:35:50;5.90;99.90
20839;DHT22;10580;51.092;6.828;2022-11-20T14:38:27;5.80;99.90
20839;DHT22;10580;51.092;6.828;2022-11-20T14:40:53;5.90;99.90
20839;DHT22;10580;51.092;6.828;2022-11-20T14:43:21;5.90;99.90
20839;DHT22;10580;51.092;6.828;2022-11-20T14:45:54;5.90;99.90
20839;DHT22;10580;51.092;6.828;2022-11-20T14:48:26;5.90;99.90
20839;DHT22;10580;51.092;6.828;2022-11-20T14:50:54;5.90;99.90
20839;DHT22;10580;51.092;6.828;2022-11-20T14:53:24;5.90;99.90
20839;DHT22;10580;51.092;6.828;2022-11-20T14:55:56;5.90;99.90
20839;DHT22;10580;51.092;6.828;2022-11-20T14:58:25;5.90;99.90
20839;DHT22;10580;51.092;6.828;2022-11-20T15:00:58;5.90;99.90
20839;DHT22;10580;51.092;6.828;2022-11-20T15:03:31;5.90;99.90
20839;DHT22;10580;51.092;6.828;2022-11-20T15:05:57;5.80;99.90
20839;DHT22;10580;51.092;6.828;2022-11-20T15:08:23;5.80;99.90
20839;DHT22;10580;51.092;6.828;2022-11-20T15:10:50;5.80;99.90
20839;DHT22;10580;51.092;6.828;2022-11-20T15:13:32;5.80;99.90
20839;DHT22;10580;51.092;6.828;2022-11-20T15:16:00;5.80;99.90
20839;DHT22;10580;51.092;6.828;2022-11-20T15:18:37;5.80;99.90
20839;DHT22;10580;51.092;6.828;2022-11-20T15:21:08;5.80;99.90
20839;DHT22;10580;51.092;6.828;2022-11-20T15:23:35;5.80;99.90
20839;DHT22;10580;51.092;6.828;2022-11-20T15:26:00;5.80;99.90
20839;DHT22;10580;51.092;6.828;2022-11-20T15:28:36;5.80;99.90
20839;DHT22;10580;51.092;6.828;2022-11-20T15:31:03;5.80;99.90
20839;DHT22;10580;51.092;6.828;2022-11-20T15:33:29;5.80;99.90
20839;DHT22;10580;51.092;6.828;2022-11-20T15:35:55;5.70;99.90
20839;DHT22;10580;51.092;6.828;2022-11-20T15:38:20;5.70;99.90
20839;DHT22;10580;51.092;6.828;2022-11-20T15:40:46;5.70;99.90
20839;DHT22;10580;51.092;6.828;2022-11-20T15:43:12;5.70;99.90
20839;DHT22;10580;51.092;6.828;2022-11-20T15:45:40;5.70;99.90
20839;DHT22;10580;51.092;6.828;2022-11-20T15:48:14;5.70;99.90
20839;DHT22;10580;51.092;6.828;2022-11-20T15:53:17;5.60;99.90
20839;DHT22;10580;51.092;6.828;2022-11-20T15:55:42;5.60;99.90
20839;DHT22;10580;51.092;6.828;2022-11-20T15:58:08;5.60;99.90
20839;DHT22;10580;51.092;6.828;2022-11-20T16:00:33;5.70;99.90
20839;DHT22;10580;51.092;6.828;2022-11-20T16:02:59;5.60;99.90
20839;DHT22;10580;51.092;6.828;2022-11-20T16:05:28;5.70;99.90
20839;DHT22;10580;51.092;6.828;2022-11-20T16:07:53;5.70;99.90
20839;DHT22;10580;51.092;6.828;2022-11-20T16:10:19;5.70;99.90
20839;DHT22;10580;51.092;6.828;2022-11-20T16:12:45;5.70;99.90
20839;DHT22;10580;51.092;6.828;2022-11-20T16:15:29;5.70;99.90
20839;DHT22;10580;51.092;6.828;2022-11-20T16:18:15;5.60;99.90
20839;DHT22;10580;51.092;6.828;2022-11-20T16:20:42;5.60;99.90
20839;DHT22;10580;51.092;6.828;2022-11-20T16:23:07;5.60;99.90
20839;DHT22;10580;51.092;6.828;2022-11-20T16:25:33;5.60;99.90
20839;DHT22;10580;51.092;6.828;2022-11-20T16:27:59;5.60;99.90
20839;DHT22;10580;51.092;6.828;2022-11-20T16:30:24;5.70;99.90
20839;DHT22;10580;51.092;6.828;2022-11-20T16:32:50;5.60;99.90
20839;DHT22;10580;51.092;6.828;2022-11-20T16:35:16;5.70;99.90
20839;DHT22;10580;51.092;6.828;2022-11-20T16:37:41;5.60;99.90
20839;DHT22;10580;51.092;6.828;2022-11-20T16:40:09;5.70;99.90
20839;DHT22;10580;51.092;6.828;2022-11-20T16:42:36;5.80;99.90
20839;DHT22;10580;51.092;6.828;2022-11-20T16:45:02;5.70;99.90
20839;DHT22;10580;51.092;6.828;2022-11-20T16:47:28;5.80;99.90
20839;DHT22;10580;51.092;6.828;2022-11-20T16:49:53;5.90;99.90
20839;DHT22;10580;51.092;6.828;2022-11-20T16:52:19;6.00;99.90
20839;DHT22;10580;51.092;6.828;2022-11-20T16:54:44;6.00;99.90
20839;DHT22;10580;51.092;6.828;2022-11-20T16:57:10;6.10;99.90
20839;DHT22;10580;51.092;6.828;2022-11-20T16:59:35;6.10;99.90
20839;DHT22;10580;51.092;6.828;2022-11-20T17:02:02;6.20;99.90
20839;DHT22;10580;51.092;6.828;2022-11-20T17:04:27;6.20;99.90
20839;DHT22;10580;51.092;6.828;2022-11-20T17:06:53;6.20;99.90
20839;DHT22;10580;51.092;6.828;2022-11-20T17:09:18;6.20;99.90
20839;DHT22;10580;51.092;6.828;2022-11-20T17:11:44;6.20;99.90
20839;DHT22;10580;51.092;6.828;2022-11-20T17:14:10;6.20;99.90
20839;DHT22;10580;51.092;6.828;2022-11-20T17:16:37;6.20;99.90
20839;DHT22;10580;51.092;6.828;2022-11-20T17:19:03;6.20;99.90